sensor_id;sensor_type;location;lat;lon;timestamp;pressure;altitude;pressure_sealevel;temperature;humidity
9538;BME280;4807;48.024;11.726;2023-09-19T00:01:36;94718.09;;;14.73;96.32
9538;BME280;4807;48.024;11.726;2023-09-19T00:04:46;94718.44;;;14.76;95.90
9538;BME280;4807;48.024;11.726;2023-09-19T00:07:57;94726.13;;;14.84;95.09
9538;BME280;4807;48.024;11.726;2023-09-19T00:11:08;94717.38;;;14.77;95.82
9538;BME280;4807;48.024;11.726;2023-09-19T00:14:20;94718.56;;;14.81;95.45
9538;BME280;4807;48.024;11.726;2023-09-19T00:17:32;94715.06;;;14.81;96.02
9538;BME280;4807;48.024;11.726;2023-09-19T00:20:42;94710.03;;;14.84;95.21
9538;BME280;4807;48.024;11.726;2023-09-19T00:23:55;94713.81;;;14.83;95.67
9538;BME280;4807;48.024;11.726;2023-09-19T00:27:05;94715.88;;;14.81;95.34
9538;BME280;4807;48.024;11.726;2023-09-19T00:30:17;94714.94;;;14.87;95.27
9538;BME280;4807;48.024;11.726;2023-09-19T00:33:29;94709.94;;;14.91;95.08
9538;BME280;4807;48.024;11.726;2023-09-19T00:36:38;94716.69;;;14.94;94.98
9538;BME280;4807;48.024;11.726;2023-09-19T00:39:47;94724.72;;;14.94;95.08
9538;BME280;4807;48.024;11.726;2023-09-19T00:42:58;94723.09;;;14.93;95.11
9538;BME280;4807;48.024;11.726;2023-09-19T00:46:10;94726.38;;;14.95;95.08
9538;BME280;4807;48.024;11.726;2023-09-19T00:49:19;94722.88;;;15.06;94.85
9538;BME280;4807;48.024;11.726;2023-09-19T00:52:30;94728.81;;;14.96;94.98
9538;BME280;4807;48.024;11.726;2023-09-19T00:55:39;94716.47;;;14.95;95.27
9538;BME280;4807;48.024;11.726;2023-09-19T00:58:50;94723.09;;;14.93;94.79
9538;BME280;4807;48.024;11.726;2023-09-19T01:01:59;94732.22;;;14.92;94.54
9538;BME280;4807;48.024;11.726;2023-09-19T01:05:13;94728.22;;;14.94;94.93
9538;BME280;4807;48.024;11.726;2023-09-19T01:08:22;94726.13;;;14.84;95.09
9538;BME280;4807;48.024;11.726;2023-09-19T01:11:35;94730.44;;;14.85;94.68
9538;BME280;4807;48.024;11.726;2023-09-19T01:14:54;94734.53;;;15.00;93.52
9538;BME280;4807;48.024;11.726;2023-09-19T01:18:16;94740.94;;;14.99;93.19
9538;BME280;4807;48.024;11.726;2023-09-19T01:21:29;94738.75;;;15.07;93.44
9538;BME280;4807;48.024;11.726;2023-09-19T01:25:14;94743.16;;;15.02;93.22
9538;BME280;4807;48.024;11.726;2023-09-19T01:28:34;94742.59;;;15.00;92.42
9538;BME280;4807;48.024;11.726;2023-09-19T01:31:47;94750.63;;;15.00;92.70
9538;BME280;4807;48.024;11.726;2023-09-19T01:34:58;94754.00;;;15.07;91.61
9538;BME280;4807;48.024;11.726;2023-09-19T01:38:11;94757.84;;;15.11;90.85
9538;BME280;4807;48.024;11.726;2023-09-19T01:41:28;94762.84;;;15.19;90.32
9538;BME280;4807;48.024;11.726;2023-09-19T01:44:48;94765.19;;;15.27;88.71
9538;BME280;4807;48.024;11.726;2023-09-19T01:48:10;94777.91;;;15.20;89.19
9538;BME280;4807;48.024;11.726;2023-09-19T01:51:32;94772.28;;;15.33;88.09
9538;BME280;4807;48.024;11.726;2023-09-19T01:54:50;94779.88;;;15.36;87.88
9538;BME280;4807;48.024;11.726;2023-09-19T01:58:04;94781.75;;;15.47;87.23
9538;BME280;4807;48.024;11.726;2023-09-19T02:01:19;94783.84;;;15.57;86.38
9538;BME280;4807;48.024;11.726;2023-09-19T02:04:30;94788.28;;;15.63;86.71
9538;BME280;4807;48.024;11.726;2023-09-19T02:07:40;94789.44;;;15.67;87.07
9538;BME280;4807;48.024;11.726;2023-09-19T02:10:49;94791.19;;;15.61;87.56
9538;BME280;4807;48.024;11.726;2023-09-19T02:13:58;94787.56;;;15.68;87.85
9538;BME280;4807;48.024;11.726;2023-09-19T02:17:06;94791.09;;;15.56;88.59
9538;BME280;4807;48.024;11.726;2023-09-19T02:20:19;94785.34;;;15.53;89.21
9538;BME280;4807;48.024;11.726;2023-09-19T02:23:29;94788.53;;;15.61;89.03
9538;BME280;4807;48.024;11.726;2023-09-19T02:26:38;94773.81;;;15.52;88.97
9538;BME280;4807;48.024;11.726;2023-09-19T02:29:46;94782.91;;;15.51;89.17
9538;BME280;4807;48.024;11.726;2023-09-19T02:32:57;94789.09;;;15.40;89.34
9538;BME280;4807;48.024;11.726;2023-09-19T02:36:10;94792.34;;;15.42;89.09
9538;BME280;4807;48.024;11.726;2023-09-19T02:39:19;94786.19;;;15.30;89.32
9538;BME280;4807;48.024;11.726;2023-09-19T02:42:28;94790.72;;;15.30;89.87
9538;BME280;4807;48.024;11.726;2023-09-19T02:45:37;94802.72;;;15.27;89.73
9538;BME280;4807;48.024;11.726;2023-09-19T02:48:46;94791.53;;;15.18;90.37
9538;BME280;4807;48.024;11.726;2023-09-19T02:51:56;94797.47;;;15.09;91.06
9538;BME280;4807;48.024;11.726;2023-09-19T02:55:07;94796.44;;;15.21;91.01
9538;BME280;4807;48.024;11.726;2023-09-19T02:58:16;94789.91;;;15.17;91.47
9538;BME280;4807;48.024;11.726;2023-09-19T03:01:27;94794.44;;;15.17;91.61
9538;BME280;4807;48.024;11.726;2023-09-19T03:04:36;94797.13;;;15.17;91.66
9538;BME280;4807;48.024;11.726;2023-09-19T03:07:47;94792.94;;;15.09;92.32
9538;BME280;4807;48.024;11.726;2023-09-19T03:10:59;94797.47;;;15.09;92.26
9538;BME280;4807;48.024;11.726;2023-09-19T03:14:08;94796.31;;;15.05;92.39
9538;BME280;4807;48.024;11.726;2023-09-19T03:17:18;94799.34;;;14.97;92.83
9538;BME280;4807;48.024;11.726;2023-09-19T03:20:28;94800.16;;;15.09;92.54
9538;BME280;4807;48.024;11.726;2023-09-19T03:23:39;94798.56;;;15.08;91.86
9538;BME280;4807;48.024;11.726;2023-09-19T03:26:48;94804.47;;;14.98;92.92
9538;BME280;4807;48.024;11.726;2023-09-19T03:29:57;94801.91;;;15.03;91.10
9538;BME280;4807;48.024;11.726;2023-09-19T03:33:06;94804.38;;;15.05;91.46
9538;BME280;4807;48.024;11.726;2023-09-19T03:36:16;94798.41;;;15.03;91.16
9538;BME280;4807;48.024;11.726;2023-09-19T03:39:27;94787.69;;;15.03;90.47
9538;BME280;4807;48.024;11.726;2023-09-19T03:42:38;94788.38;;;15.10;89.94
9538;BME280;4807;48.024;11.726;2023-09-19T03:45:49;94793.53;;;15.00;90.76
9538;BME280;4807;48.024;11.726;2023-09-19T03:48:59;94790.84;;;15.00;91.12
9538;BME280;4807;48.024;11.726;2023-09-19T03:52:08;94793.72;;;14.86;91.53
9538;BME280;4807;48.024;11.726;2023-09-19T03:55:18;94796.56;;;14.92;91.19
9538;BME280;4807;48.024;11.726;2023-09-19T03:58:27;94792.69;;;14.87;91.55
9538;BME280;4807;48.024;11.726;2023-09-19T04:01:35;94799.69;;;15.00;91.40
9538;BME280;4807;48.024;11.726;2023-09-19T04:04:44;94806.78;;;14.95;91.13
9538;BME280;4807;48.024;11.726;2023-09-19T04:07:53;94816.50;;;15.07;90.36
9538;BME280;4807;48.024;11.726;2023-09-19T04:11:03;94813.47;;;15.27;88.96
9538;BME280;4807;48.024;11.726;2023-09-19T04:14:12;94812.53;;;15.21;88.99
9538;BME280;4807;48.024;11.726;2023-09-19T04:17:21;94811.97;;;15.31;88.09
9538;BME280;4807;48.024;11.726;2023-09-19T04:20:31;94822.69;;;15.31;87.39
9538;BME280;4807;48.024;11.726;2023-09-19T04:23:39;94824.91;;;15.22;88.05
9538;BME280;4807;48.024;11.726;2023-09-19T04:26:50;94829.78;;;15.25;87.80
9538;BME280;4807;48.024;11.726;2023-09-19T04:29:59;94835.16;;;15.25;87.33
9538;BME280;4807;48.024;11.726;2023-09-19T04:33:12;94834.91;;;15.27;87.19
9538;BME280;4807;48.024;11.726;2023-09-19T04:36:22;94834.44;;;15.18;87.81
9538;BME280;4807;48.024;11.726;2023-09-19T04:39:42;94843.19;;;15.14;88.25
9538;BME280;4807;48.024;11.726;2023-09-19T04:42:55;94850.28;;;15.08;88.15
9538;BME280;4807;48.024;11.726;2023-09-19T04:46:04;94856.81;;;15.01;88.99
9538;BME280;4807;48.024;11.726;2023-09-19T04:49:14;94855.53;;;14.92;88.59
9538;BME280;4807;48.024;11.726;2023-09-19T04:52:23;94857.84;;;14.88;89.18
9538;BME280;4807;48.024;11.726;2023-09-19T04:55:31;94862.09;;;15.07;87.24
9538;BME280;4807;48.024;11.726;2023-09-19T04:58:41;94859.84;;;15.04;87.89
9538;BME280;4807;48.024;11.726;2023-09-19T05:01:50;94867.31;;;15.02;88.14
9538;BME280;4807;48.024;11.726;2023-09-19T05:04:59;94868.13;;;15.03;87.10
9538;BME280;4807;48.024;11.726;2023-09-19T05:08:08;94869.75;;;15.04;86.78
9538;BME280;4807;48.024;11.726;2023-09-19T05:11:17;94873.97;;;15.00;86.99
9538;BME280;4807;48.024;11.726;2023-09-19T05:14:27;94882.00;;;15.11;85.92
9538;BME280;4807;48.024;11.726;2023-09-19T05:17:36;94882.59;;;15.25;85.10
9538;BME280;4807;48.024;11.726;2023-09-19T05:20:46;94883.56;;;15.31;84.88
9538;BME280;4807;48.024;11.726;2023-09-19T05:23:57;94888.94;;;15.31;84.72
9538;BME280;4807;48.024;11.726;2023-09-19T05:27:06;94897.31;;;15.34;84.56
9538;BME280;4807;48.024;11.726;2023-09-19T05:30:16;94898.41;;;15.45;84.14
9538;BME280;4807;48.024;11.726;2023-09-19T05:33:25;94908.09;;;15.57;83.43
9538;BME280;4807;48.024;11.726;2023-09-19T05:36:34;94901.34;;;15.67;83.20
9538;BME280;4807;48.024;11.726;2023-09-19T05:39:43;94913.13;;;15.77;82.25
9538;BME280;4807;48.024;11.726;2023-09-19T05:42:52;94914.06;;;15.94;80.96
9538;BME280;4807;48.024;11.726;2023-09-19T05:46:02;94908.47;;;15.96;80.77
9538;BME280;4807;48.024;11.726;2023-09-19T05:49:11;94919.44;;;15.94;81.08
9538;BME280;4807;48.024;11.726;2023-09-19T05:52:19;94923.06;;;15.88;82.08
9538;BME280;4807;48.024;11.726;2023-09-19T05:55:29;94923.19;;;15.70;82.18
9538;BME280;4807;48.024;11.726;2023-09-19T05:58:38;94927.72;;;15.70;83.16
9538;BME280;4807;48.024;11.726;2023-09-19T06:01:49;94925.28;;;15.68;82.58
9538;BME280;4807;48.024;11.726;2023-09-19T06:04:59;94936.00;;;15.56;82.76
9538;BME280;4807;48.024;11.726;2023-09-19T06:08:08;94929.31;;;15.47;82.84
9538;BME280;4807;48.024;11.726;2023-09-19T06:11:17;94929.94;;;15.61;83.11
9538;BME280;4807;48.024;11.726;2023-09-19T06:14:27;94937.66;;;16.04;80.65
9538;BME280;4807;48.024;11.726;2023-09-19T06:17:38;94933.31;;;16.26;80.53
9538;BME280;4807;48.024;11.726;2023-09-19T06:20:47;94939.22;;;16.52;79.41
9538;BME280;4807;48.024;11.726;2023-09-19T06:23:56;94934.28;;;16.60;78.66
9538;BME280;4807;48.024;11.726;2023-09-19T06:27:05;94945.91;;;17.17;77.37
9538;BME280;4807;48.024;11.726;2023-09-19T06:30:15;94941.25;;;17.30;75.86
9538;BME280;4807;48.024;11.726;2023-09-19T06:33:26;94945.75;;;17.41;76.46
9538;BME280;4807;48.024;11.726;2023-09-19T06:36:34;94949.00;;;17.71;74.83
9538;BME280;4807;48.024;11.726;2023-09-19T06:39:43;94942.84;;;17.76;72.98
9538;BME280;4807;48.024;11.726;2023-09-19T06:42:52;94944.91;;;17.85;73.46
9538;BME280;4807;48.024;11.726;2023-09-19T06:46:03;94947.13;;;17.72;74.21
9538;BME280;4807;48.024;11.726;2023-09-19T06:49:15;94955.22;;;18.27;73.38
9538;BME280;4807;48.024;11.726;2023-09-19T06:52:24;94952.59;;;18.71;71.16
9538;BME280;4807;48.024;11.726;2023-09-19T06:55:33;94960.81;;;19.29;68.77
9538;BME280;4807;48.024;11.726;2023-09-19T06:58:43;94959.47;;;19.32;67.97
9538;BME280;4807;48.024;11.726;2023-09-19T07:01:51;94970.16;;;19.22;68.03
9538;BME280;4807;48.024;11.726;2023-09-19T07:05:02;94965.47;;;18.63;68.46
9538;BME280;4807;48.024;11.726;2023-09-19T07:08:11;94971.53;;;18.37;70.01
9538;BME280;4807;48.024;11.726;2023-09-19T07:11:20;94969.19;;;18.24;71.29
9538;BME280;4807;48.024;11.726;2023-09-19T07:14:30;94974.41;;;18.91;69.95
9538;BME280;4807;48.024;11.726;2023-09-19T07:17:40;94975.41;;;18.85;69.28
9538;BME280;4807;48.024;11.726;2023-09-19T07:20:57;94978.91;;;19.07;68.12
9538;BME280;4807;48.024;11.726;2023-09-19T07:24:08;94980.31;;;19.36;69.32
9538;BME280;4807;48.024;11.726;2023-09-19T07:27:17;94987.47;;;19.48;67.42
9538;BME280;4807;48.024;11.726;2023-09-19T07:30:26;94985.34;;;19.50;67.41
9538;BME280;4807;48.024;11.726;2023-09-19T07:33:35;94991.78;;;19.00;68.15
9538;BME280;4807;48.024;11.726;2023-09-19T07:36:45;94988.13;;;18.89;67.61
9538;BME280;4807;48.024;11.726;2023-09-19T07:39:54;94987.34;;;19.11;68.66
9538;BME280;4807;48.024;11.726;2023-09-19T07:43:03;94999.00;;;18.94;68.78
9538;BME280;4807;48.024;11.726;2023-09-19T07:46:12;94989.72;;;18.85;68.10
9538;BME280;4807;48.024;11.726;2023-09-19T07:49:20;94997.25;;;18.83;68.73
9538;BME280;4807;48.024;11.726;2023-09-19T07:52:31;94995.25;;;18.95;68.81
9538;BME280;4807;48.024;11.726;2023-09-19T07:55:41;94990.47;;;19.02;68.84
9538;BME280;4807;48.024;11.726;2023-09-19T07:58:50;94984.31;;;19.07;68.99
9538;BME280;4807;48.024;11.726;2023-09-19T08:01:59;94987.50;;;19.26;67.71
9538;BME280;4807;48.024;11.726;2023-09-19T08:05:09;94996.53;;;19.36;67.22
9538;BME280;4807;48.024;11.726;2023-09-19T08:08:20;95000.66;;;19.44;67.37
9538;BME280;4807;48.024;11.726;2023-09-19T08:11:29;94997.44;;;19.20;67.31
9538;BME280;4807;48.024;11.726;2023-09-19T08:14:38;94999.69;;;19.28;66.29
9538;BME280;4807;48.024;11.726;2023-09-19T08:17:49;95012.66;;;19.31;67.94
9538;BME280;4807;48.024;11.726;2023-09-19T08:20:58;95011.53;;;19.27;67.90
9538;BME280;4807;48.024;11.726;2023-09-19T08:24:09;95008.16;;;19.37;65.87
9538;BME280;4807;48.024;11.726;2023-09-19T08:27:18;95017.28;;;19.58;65.93
9538;BME280;4807;48.024;11.726;2023-09-19T08:30:27;95008.25;;;19.74;65.50
9538;BME280;4807;48.024;11.726;2023-09-19T08:33:37;95001.41;;;19.93;65.98
9538;BME280;4807;48.024;11.726;2023-09-19T08:36:50;94999.19;;;19.85;65.62
9538;BME280;4807;48.024;11.726;2023-09-19T08:40:02;95003.94;;;19.73;65.69
9538;BME280;4807;48.024;11.726;2023-09-19T08:43:11;94996.50;;;19.90;64.52
9538;BME280;4807;48.024;11.726;2023-09-19T08:46:21;95000.13;;;19.69;64.54
9538;BME280;4807;48.024;11.726;2023-09-19T08:49:41;94993.69;;;19.75;65.60
9538;BME280;4807;48.024;11.726;2023-09-19T08:53:01;95005.47;;;19.96;64.08
9538;BME280;4807;48.024;11.726;2023-09-19T08:56:13;95004.19;;;20.03;63.88
9538;BME280;4807;48.024;11.726;2023-09-19T08:59:23;95007.28;;;20.17;62.29
9538;BME280;4807;48.024;11.726;2023-09-19T09:02:34;95001.59;;;20.50;61.86
9538;BME280;4807;48.024;11.726;2023-09-19T09:05:43;95012.91;;;20.94;61.73
9538;BME280;4807;48.024;11.726;2023-09-19T09:08:53;95011.31;;;21.71;60.39
9538;BME280;4807;48.024;11.726;2023-09-19T09:12:05;95013.97;;;21.56;58.09
9538;BME280;4807;48.024;11.726;2023-09-19T09:15:14;95009.88;;;21.38;59.46
9538;BME280;4807;48.024;11.726;2023-09-19T09:18:24;95012.47;;;21.13;60.15
9538;BME280;4807;48.024;11.726;2023-09-19T09:21:33;95009.94;;;20.96;60.93
9538;BME280;4807;48.024;11.726;2023-09-19T09:24:53;95012.09;;;20.94;59.44
9538;BME280;4807;48.024;11.726;2023-09-19T09:28:04;95009.19;;;21.11;60.64
9538;BME280;4807;48.024;11.726;2023-09-19T09:31:23;95022.56;;;20.75;58.87
9538;BME280;4807;48.024;11.726;2023-09-19T09:34:33;95014.00;;;20.14;60.79
9538;BME280;4807;48.024;11.726;2023-09-19T09:37:43;95013.44;;;19.80;62.05
9538;BME280;4807;48.024;11.726;2023-09-19T09:40:56;95026.06;;;19.70;63.41
9538;BME280;4807;48.024;11.726;2023-09-19T09:44:18;95021.91;;;19.35;64.82
9538;BME280;4807;48.024;11.726;2023-09-19T09:47:42;95024.06;;;19.60;63.21
9538;BME280;4807;48.024;11.726;2023-09-19T09:50:57;95023.03;;;19.93;61.78
9538;BME280;4807;48.024;11.726;2023-09-19T09:54:11;95018.59;;;19.55;62.39
9538;BME280;4807;48.024;11.726;2023-09-19T09:57:21;95020.56;;;19.60;63.08
9538;BME280;4807;48.024;11.726;2023-09-19T10:00:34;95010.25;;;20.15;63.45
9538;BME280;4807;48.024;11.726;2023-09-19T10:04:03;95016.38;;;20.38;61.38
9538;BME280;4807;48.024;11.726;2023-09-19T10:07:25;95009.69;;;20.13;60.38
9538;BME280;4807;48.024;11.726;2023-09-19T10:10:36;95010.47;;;20.46;60.37
9538;BME280;4807;48.024;11.726;2023-09-19T10:14:01;95006.13;;;20.40;60.61
9538;BME280;4807;48.024;11.726;2023-09-19T10:17:18;95010.84;;;19.64;59.15
9538;BME280;4807;48.024;11.726;2023-09-19T10:20:31;95013.66;;;19.47;59.55
9538;BME280;4807;48.024;11.726;2023-09-19T10:23:47;95013.97;;;19.51;61.46
9538;BME280;4807;48.024;11.726;2023-09-19T10:26:59;95023.63;;;19.47;60.93
9538;BME280;4807;48.024;11.726;2023-09-19T10:30:08;95018.97;;;19.64;61.46
9538;BME280;4807;48.024;11.726;2023-09-19T10:33:21;95019.38;;;19.51;60.89
9538;BME280;4807;48.024;11.726;2023-09-19T10:36:33;95029.44;;;19.87;61.40
9538;BME280;4807;48.024;11.726;2023-09-19T10:39:46;95017.88;;;20.24;61.07
9538;BME280;4807;48.024;11.726;2023-09-19T10:43:00;95027.75;;;20.40;60.03
9538;BME280;4807;48.024;11.726;2023-09-19T10:46:10;95022.63;;;20.43;59.16
9538;BME280;4807;48.024;11.726;2023-09-19T10:49:21;95024.97;;;20.67;57.67
9538;BME280;4807;48.024;11.726;2023-09-19T10:52:30;95019.63;;;21.39;58.61
9538;BME280;4807;48.024;11.726;2023-09-19T10:55:41;95023.78;;;21.77;54.51
9538;BME280;4807;48.024;11.726;2023-09-19T10:58:51;95026.25;;;22.14;54.20
9538;BME280;4807;48.024;11.726;2023-09-19T11:02:00;95022.19;;;22.42;54.76
9538;BME280;4807;48.024;11.726;2023-09-19T11:05:26;95021.38;;;22.62;51.10
9538;BME280;4807;48.024;11.726;2023-09-19T11:08:56;95022.47;;;22.45;51.95
9538;BME280;4807;48.024;11.726;2023-09-19T11:12:05;95019.72;;;21.95;51.66
9538;BME280;4807;48.024;11.726;2023-09-19T11:18:57;95023.78;;;21.72;51.70
9538;BME280;4807;48.024;11.726;2023-09-19T11:22:09;95024.09;;;22.16;51.16
9538;BME280;4807;48.024;11.726;2023-09-19T11:25:42;95020.56;;;22.61;51.86
9538;BME280;4807;48.024;11.726;2023-09-19T11:29:25;95025.16;;;22.61;49.78
9538;BME280;4807;48.024;11.726;2023-09-19T11:33:16;95017.00;;;21.85;50.02
9538;BME280;4807;48.024;11.726;2023-09-19T11:36:36;95023.03;;;21.14;52.47
9538;BME280;4807;48.024;11.726;2023-09-19T11:40:05;95024.66;;;20.63;53.49
9538;BME280;4807;48.024;11.726;2023-09-19T11:43:33;95024.41;;;20.65;52.60
9538;BME280;4807;48.024;11.726;2023-09-19T11:46:54;95014.78;;;20.42;51.63
9538;BME280;4807;48.024;11.726;2023-09-19T11:50:05;95010.31;;;20.63;51.86
9538;BME280;4807;48.024;11.726;2023-09-19T11:53:18;95012.66;;;21.01;50.88
9538;BME280;4807;48.024;11.726;2023-09-19T11:56:29;95015.75;;;21.20;51.71
9538;BME280;4807;48.024;11.726;2023-09-19T11:59:39;95008.28;;;21.47;51.32
9538;BME280;4807;48.024;11.726;2023-09-19T12:02:51;95012.03;;;21.41;51.23
9538;BME280;4807;48.024;11.726;2023-09-19T12:06:11;95010.44;;;21.50;51.18
9538;BME280;4807;48.024;11.726;2023-09-19T12:09:22;95013.66;;;21.42;49.56
9538;BME280;4807;48.024;11.726;2023-09-19T12:12:34;95013.66;;;21.42;49.58
9538;BME280;4807;48.024;11.726;2023-09-19T12:15:43;95015.28;;;21.43;51.03
9538;BME280;4807;48.024;11.726;2023-09-19T12:18:53;95007.50;;;21.62;51.13
9538;BME280;4807;48.024;11.726;2023-09-19T12:22:04;95003.47;;;21.95;50.60
9538;BME280;4807;48.024;11.726;2023-09-19T12:25:13;95005.94;;;22.12;50.96
9538;BME280;4807;48.024;11.726;2023-09-19T12:28:27;94998.63;;;22.02;50.35
9538;BME280;4807;48.024;11.726;2023-09-19T12:31:51;94989.09;;;22.15;49.60
9538;BME280;4807;48.024;11.726;2023-09-19T12:35:02;94988.84;;;22.11;49.26
9538;BME280;4807;48.024;11.726;2023-09-19T12:38:24;94996.44;;;22.14;50.23
9538;BME280;4807;48.024;11.726;2023-09-19T12:41:34;94996.41;;;21.79;48.90
9538;BME280;4807;48.024;11.726;2023-09-19T12:44:45;94986.13;;;21.96;49.07
9538;BME280;4807;48.024;11.726;2023-09-19T12:48:17;95004.59;;;22.04;47.77
9538;BME280;4807;48.024;11.726;2023-09-19T12:51:35;94995.88;;;21.92;48.81
9538;BME280;4807;48.024;11.726;2023-09-19T12:54:44;94998.63;;;22.02;49.83
9538;BME280;4807;48.024;11.726;2023-09-19T12:58:08;94987.47;;;21.98;48.60
9538;BME280;4807;48.024;11.726;2023-09-19T13:01:19;94983.97;;;22.08;49.38
9538;BME280;4807;48.024;11.726;2023-09-19T13:04:29;94976.91;;;22.07;50.42
9538;BME280;4807;48.024;11.726;2023-09-19T13:07:43;94981.25;;;22.08;48.14
9538;BME280;4807;48.024;11.726;2023-09-19T13:11:10;94981.53;;;22.01;49.53
9538;BME280;4807;48.024;11.726;2023-09-19T13:14:21;94975.84;;;22.13;49.72
9538;BME280;4807;48.024;11.726;2023-09-19T13:17:44;94969.31;;;22.29;49.50
9538;BME280;4807;48.024;11.726;2023-09-19T13:21:09;94968.50;;;22.19;51.15
9538;BME280;4807;48.024;11.726;2023-09-19T13:24:21;94973.09;;;22.38;47.99
9538;BME280;4807;48.024;11.726;2023-09-19T13:27:33;94977.97;;;22.41;49.28
9538;BME280;4807;48.024;11.726;2023-09-19T13:30:42;94970.66;;;22.37;48.39
9538;BME280;4807;48.024;11.726;2023-09-19T13:33:53;94967.69;;;22.23;48.46
9538;BME280;4807;48.024;11.726;2023-09-19T13:37:02;94962.53;;;22.27;48.68
9538;BME280;4807;48.024;11.726;2023-09-19T13:40:13;94956.03;;;22.28;45.94
9538;BME280;4807;48.024;11.726;2023-09-19T13:43:22;94969.31;;;22.24;45.38
9538;BME280;4807;48.024;11.726;2023-09-19T13:46:32;94957.66;;;22.08;46.76
9538;BME280;4807;48.024;11.726;2023-09-19T13:49:44;94967.44;;;21.99;46.43
9538;BME280;4807;48.024;11.726;2023-09-19T13:52:56;94957.91;;;21.92;46.57
9538;BME280;4807;48.024;11.726;2023-09-19T13:56:05;94952.50;;;21.92;46.30
9538;BME280;4807;48.024;11.726;2023-09-19T13:59:14;94959.56;;;22.03;47.26
9538;BME280;4807;48.024;11.726;2023-09-19T14:02:23;94961.16;;;21.84;48.00
9538;BME280;4807;48.024;11.726;2023-09-19T14:05:34;94961.69;;;21.76;47.58
9538;BME280;4807;48.024;11.726;2023-09-19T14:08:43;94962.78;;;21.75;47.82
9538;BME280;4807;48.024;11.726;2023-09-19T14:11:54;94962.50;;;21.76;48.33
9538;BME280;4807;48.024;11.726;2023-09-19T14:15:03;94954.66;;;21.90;48.62
9538;BME280;4807;48.024;11.726;2023-09-19T14:18:12;94966.03;;;21.77;49.46
9538;BME280;4807;48.024;11.726;2023-09-19T14:21:22;94961.97;;;21.54;50.66
9538;BME280;4807;48.024;11.726;2023-09-19T14:24:31;94953.28;;;21.52;50.10
9538;BME280;4807;48.024;11.726;2023-09-19T14:27:40;94950.28;;;21.43;49.31
9538;BME280;4807;48.024;11.726;2023-09-19T14:30:48;94956.78;;;21.42;50.54
9538;BME280;4807;48.024;11.726;2023-09-19T14:33:58;94945.38;;;21.30;51.11
9538;BME280;4807;48.024;11.726;2023-09-19T14:37:08;94940.50;;;21.27;50.30
9538;BME280;4807;48.024;11.726;2023-09-19T14:40:18;94945.91;;;21.22;51.68
9538;BME280;4807;48.024;11.726;2023-09-19T14:43:27;94942.41;;;21.31;50.53
9538;BME280;4807;48.024;11.726;2023-09-19T14:46:38;94938.34;;;21.29;51.26
9538;BME280;4807;48.024;11.726;2023-09-19T14:49:47;94934.00;;;21.23;51.25
9538;BME280;4807;48.024;11.726;2023-09-19T14:52:58;94931.56;;;21.21;51.51
9538;BME280;4807;48.024;11.726;2023-09-19T14:56:09;94938.34;;;21.29;51.51
9538;BME280;4807;48.024;11.726;2023-09-19T14:59:19;94929.97;;;21.30;51.30
9538;BME280;4807;48.024;11.726;2023-09-19T15:02:28;94934.59;;;21.40;50.02
9538;BME280;4807;48.024;11.726;2023-09-19T15:05:37;94929.69;;;21.37;50.90
9538;BME280;4807;48.024;11.726;2023-09-19T15:08:48;94914.22;;;21.27;51.17
9538;BME280;4807;48.024;11.726;2023-09-19T15:11:58;94922.34;;;21.32;51.93
9538;BME280;4807;48.024;11.726;2023-09-19T15:15:08;94918.31;;;21.30;52.34
9538;BME280;4807;48.024;11.726;2023-09-19T15:18:17;94920.50;;;21.38;51.25
9538;BME280;4807;48.024;11.726;2023-09-19T15:21:26;94918.84;;;21.37;50.98
9538;BME280;4807;48.024;11.726;2023-09-19T15:24:37;94922.66;;;21.36;49.63
9538;BME280;4807;48.024;11.726;2023-09-19T15:27:46;94922.09;;;21.34;51.34
9538;BME280;4807;48.024;11.726;2023-09-19T15:30:59;94919.91;;;21.26;50.70
9538;BME280;4807;48.024;11.726;2023-09-19T15:34:08;94916.16;;;21.32;50.40
9538;BME280;4807;48.024;11.726;2023-09-19T15:37:18;94923.19;;;21.23;50.98
9538;BME280;4807;48.024;11.726;2023-09-19T15:40:29;94922.63;;;21.21;50.97
9538;BME280;4807;48.024;11.726;2023-09-19T15:43:38;94919.09;;;21.20;50.36
9538;BME280;4807;48.024;11.726;2023-09-19T15:46:48;94915.00;;;21.08;50.90
9538;BME280;4807;48.024;11.726;2023-09-19T15:49:57;94901.41;;;20.98;50.76
9538;BME280;4807;48.024;11.726;2023-09-19T15:53:06;94904.59;;;20.84;51.15
9538;BME280;4807;48.024;11.726;2023-09-19T15:56:18;94908.69;;;20.87;52.11
9538;BME280;4807;48.024;11.726;2023-09-19T15:59:28;94903.00;;;20.83;51.78
9538;BME280;4807;48.024;11.726;2023-09-19T16:02:38;94915.16;;;20.81;51.96
9538;BME280;4807;48.024;11.726;2023-09-19T16:05:47;94911.84;;;20.59;52.92
9538;BME280;4807;48.024;11.726;2023-09-19T16:08:58;94911.28;;;20.56;51.99
9538;BME280;4807;48.024;11.726;2023-09-19T16:12:08;94918.00;;;20.49;52.25
9538;BME280;4807;48.024;11.726;2023-09-19T16:15:18;94925.50;;;20.37;53.47
9538;BME280;4807;48.024;11.726;2023-09-19T16:18:27;94924.69;;;20.36;52.84
9538;BME280;4807;48.024;11.726;2023-09-19T16:21:37;94924.38;;;20.33;52.26
9538;BME280;4807;48.024;11.726;2023-09-19T16:24:48;94927.03;;;20.28;52.75
9538;BME280;4807;48.024;11.726;2023-09-19T16:27:58;94928.91;;;20.22;53.89
9538;BME280;4807;48.024;11.726;2023-09-19T16:31:07;94930.47;;;20.13;54.85
9538;BME280;4807;48.024;11.726;2023-09-19T16:34:16;94919.31;;;19.99;54.48
9538;BME280;4807;48.024;11.726;2023-09-19T16:37:25;94931.75;;;20.00;54.68
9538;BME280;4807;48.024;11.726;2023-09-19T16:40:33;94937.88;;;19.91;55.97
9538;BME280;4807;48.024;11.726;2023-09-19T16:43:44;94935.78;;;19.66;56.02
9538;BME280;4807;48.024;11.726;2023-09-19T16:46:54;94932.84;;;19.67;56.16
9538;BME280;4807;48.024;11.726;2023-09-19T16:50:04;94929.56;;;19.38;57.44
9538;BME280;4807;48.024;11.726;2023-09-19T16:53:14;94937.38;;;19.35;56.47
9538;BME280;4807;48.024;11.726;2023-09-19T16:56:25;94933.88;;;19.34;56.90
9538;BME280;4807;48.024;11.726;2023-09-19T16:59:37;94934.56;;;19.25;57.96
9538;BME280;4807;48.024;11.726;2023-09-19T17:02:47;94938.75;;;19.11;57.46
9538;BME280;4807;48.024;11.726;2023-09-19T17:06:00;94936.03;;;18.84;58.89
9538;BME280;4807;48.024;11.726;2023-09-19T17:09:09;94945.06;;;18.73;59.09
9538;BME280;4807;48.024;11.726;2023-09-19T17:12:18;94950.47;;;18.34;60.80